sensor_id;sensor_type;location;lat;lon;timestamp;P1;durP1;ratioP1;P2;durP2;ratioP2
21754;SDS011;11039;50.028;19.938;2023-06-26T00:02:25;10.18;;;7.82;;
21754;SDS011;11039;50.028;19.938;2023-06-26T00:04:51;11.70;;;7.00;;
21754;SDS011;11039;50.028;19.938;2023-06-26T00:07:20;9.50;;;7.05;;
21754;SDS011;11039;50.028;19.938;2023-06-26T00:09:46;9.45;;;7.00;;
21754;SDS011;11039;50.028;19.938;2023-06-26T00:12:12;8.93;;;7.00;;
21754;SDS011;11039;50.028;19.938;2023-06-26T00:14:38;9.60;;;6.65;;
21754;SDS011;11039;50.028;19.938;2023-06-26T00:17:04;9.80;;;7.18;;
21754;SDS011;11039;50.028;19.938;2023-06-26T00:19:30;10.05;;;7.28;;
21754;SDS011;11039;50.028;19.938;2023-06-26T00:21:56;9.55;;;6.90;;
21754;SDS011;11039;50.028;19.938;2023-06-26T00:24:22;10.63;;;6.65;;
21754;SDS011;11039;50.028;19.938;2023-06-26T00:26:48;9.38;;;7.28;;
21754;SDS011;11039;50.028;19.938;2023-06-26T00:29:15;8.55;;;6.95;;
21754;SDS011;11039;50.028;19.938;2023-06-26T00:31:41;8.43;;;6.78;;
21754;SDS011;11039;50.028;19.938;2023-06-26T00:34:07;8.25;;;7.10;;
21754;SDS011;11039;50.028;19.938;2023-06-26T00:36:33;9.52;;;7.50;;
21754;SDS011;11039;50.028;19.938;2023-06-26T00:38:59;7.63;;;6.78;;
21754;SDS011;11039;50.028;19.938;2023-06-26T00:41:25;11.25;;;7.13;;
21754;SDS011;11039;50.028;19.938;2023-06-26T00:43:51;10.77;;;7.10;;
21754;SDS011;11039;50.028;19.938;2023-06-26T00:46:17;9.95;;;6.90;;
21754;SDS011;11039;50.028;19.938;2023-06-26T00:48:43;11.07;;;7.13;;
21754;SDS011;11039;50.028;19.938;2023-06-26T00:51:10;7.70;;;6.68;;
21754;SDS011;11039;50.028;19.938;2023-06-26T00:53:36;9.30;;;7.13;;
21754;SDS011;11039;50.028;19.938;2023-06-26T00:56:20;7.93;;;6.60;;
21754;SDS011;11039;50.028;19.938;2023-06-26T00:58:47;9.05;;;6.75;;
21754;SDS011;11039;50.028;19.938;2023-06-26T01:01:13;10.07;;;6.55;;
21754;SDS011;11039;50.028;19.938;2023-06-26T01:03:42;8.75;;;7.10;;
21754;SDS011;11039;50.028;19.938;2023-06-26T01:06:09;8.02;;;7.05;;
21754;SDS011;11039;50.028;19.938;2023-06-26T01:08:36;7.85;;;6.63;;
21754;SDS011;11039;50.028;19.938;2023-06-26T01:11:03;9.68;;;7.40;;
21754;SDS011;11039;50.028;19.938;2023-06-26T01:13:29;11.10;;;7.30;;
21754;SDS011;11039;50.028;19.938;2023-06-26T01:15:57;9.52;;;6.70;;
21754;SDS011;11039;50.028;19.938;2023-06-26T01:18:23;7.78;;;6.72;;
21754;SDS011;11039;50.028;19.938;2023-06-26T01:20:49;10.18;;;7.13;;
21754;SDS011;11039;50.028;19.938;2023-06-26T01:23:17;10.38;;;7.13;;
21754;SDS011;11039;50.028;19.938;2023-06-26T01:28:15;8.38;;;7.20;;
21754;SDS011;11039;50.028;19.938;2023-06-26T01:30:44;7.95;;;7.15;;
21754;SDS011;11039;50.028;19.938;2023-06-26T01:33:11;10.63;;;7.10;;
21754;SDS011;11039;50.028;19.938;2023-06-26T01:35:38;9.32;;;7.20;;
21754;SDS011;11039;50.028;19.938;2023-06-26T01:38:14;8.10;;;6.97;;
21754;SDS011;11039;50.028;19.938;2023-06-26T01:43:01;8.93;;;6.78;;
21754;SDS011;11039;50.028;19.938;2023-06-26T01:45:27;9.85;;;6.65;;
21754;SDS011;11039;50.028;19.938;2023-06-26T01:47:55;8.52;;;6.82;;
21754;SDS011;11039;50.028;19.938;2023-06-26T01:50:22;7.45;;;6.68;;
21754;SDS011;11039;50.028;19.938;2023-06-26T01:53:01;10.90;;;7.93;;
21754;SDS011;11039;50.028;19.938;2023-06-26T01:57:54;9.48;;;7.00;;
21754;SDS011;11039;50.028;19.938;2023-06-26T02:00:21;11.05;;;7.20;;
21754;SDS011;11039;50.028;19.938;2023-06-26T02:02:49;9.73;;;6.80;;
21754;SDS011;11039;50.028;19.938;2023-06-26T02:05:17;8.02;;;6.90;;
21754;SDS011;11039;50.028;19.938;2023-06-26T02:07:43;11.38;;;7.22;;
21754;SDS011;11039;50.028;19.938;2023-06-26T02:10:10;7.97;;;7.03;;
21754;SDS011;11039;50.028;19.938;2023-06-26T02:12:36;10.30;;;7.03;;
21754;SDS011;11039;50.028;19.938;2023-06-26T02:15:02;9.10;;;6.75;;
21754;SDS011;11039;50.028;19.938;2023-06-26T02:17:29;8.55;;;7.40;;
21754;SDS011;11039;50.028;19.938;2023-06-26T02:19:55;10.50;;;7.03;;
21754;SDS011;11039;50.028;19.938;2023-06-26T02:22:21;8.40;;;7.13;;
21754;SDS011;11039;50.028;19.938;2023-06-26T02:24:47;10.40;;;6.60;;
21754;SDS011;11039;50.028;19.938;2023-06-26T02:27:13;9.63;;;6.88;;
21754;SDS011;11039;50.028;19.938;2023-06-26T02:29:40;9.68;;;6.97;;
21754;SDS011;11039;50.028;19.938;2023-06-26T02:32:06;13.07;;;7.13;;
21754;SDS011;11039;50.028;19.938;2023-06-26T02:34:32;8.20;;;7.05;;
21754;SDS011;11039;50.028;19.938;2023-06-26T02:39:17;8.05;;;6.72;;
21754;SDS011;11039;50.028;19.938;2023-06-26T02:41:43;10.80;;;7.55;;
21754;SDS011;11039;50.028;19.938;2023-06-26T02:44:09;8.30;;;6.70;;
21754;SDS011;11039;50.028;19.938;2023-06-26T02:46:37;8.23;;;6.80;;
21754;SDS011;11039;50.028;19.938;2023-06-26T02:49:03;8.63;;;6.78;;
21754;SDS011;11039;50.028;19.938;2023-06-26T02:51:29;9.90;;;7.03;;
21754;SDS011;11039;50.028;19.938;2023-06-26T02:53:55;10.38;;;7.22;;
21754;SDS011;11039;50.028;19.938;2023-06-26T02:56:21;8.23;;;7.28;;
21754;SDS011;11039;50.028;19.938;2023-06-26T02:58:47;8.48;;;6.93;;
21754;SDS011;11039;50.028;19.938;2023-06-26T03:01:13;10.80;;;7.13;;
21754;SDS011;11039;50.028;19.938;2023-06-26T03:08:16;9.02;;;7.22;;
21754;SDS011;11039;50.028;19.938;2023-06-26T03:10:42;9.55;;;6.80;;
21754;SDS011;11039;50.028;19.938;2023-06-26T03:13:08;9.05;;;6.95;;
21754;SDS011;11039;50.028;19.938;2023-06-26T03:15:34;10.63;;;7.65;;
21754;SDS011;11039;50.028;19.938;2023-06-26T03:20:20;10.98;;;7.22;;
21754;SDS011;11039;50.028;19.938;2023-06-26T03:22:46;10.02;;;7.10;;
21754;SDS011;11039;50.028;19.938;2023-06-26T03:25:12;10.88;;;7.30;;
21754;SDS011;11039;50.028;19.938;2023-06-26T03:27:38;9.68;;;7.15;;
21754;SDS011;11039;50.028;19.938;2023-06-26T03:30:04;9.65;;;7.65;;
21754;SDS011;11039;50.028;19.938;2023-06-26T03:32:30;9.93;;;7.15;;
21754;SDS011;11039;50.028;19.938;2023-06-26T03:34:56;8.95;;;7.50;;
21754;SDS011;11039;50.028;19.938;2023-06-26T03:37:22;10.93;;;7.80;;
21754;SDS011;11039;50.028;19.938;2023-06-26T03:39:48;10.95;;;7.40;;
21754;SDS011;11039;50.028;19.938;2023-06-26T03:42:14;10.27;;;7.32;;
21754;SDS011;11039;50.028;19.938;2023-06-26T03:44:40;10.57;;;7.18;;
21754;SDS011;11039;50.028;19.938;2023-06-26T03:49:26;8.15;;;7.05;;
21754;SDS011;11039;50.028;19.938;2023-06-26T03:51:52;9.50;;;7.10;;
21754;SDS011;11039;50.028;19.938;2023-06-26T03:54:18;11.98;;;8.07;;
21754;SDS011;11039;50.028;19.938;2023-06-26T03:56:44;9.63;;;7.63;;
21754;SDS011;11039;50.028;19.938;2023-06-26T03:59:10;8.75;;;7.05;;
21754;SDS011;11039;50.028;19.938;2023-06-26T04:01:37;9.93;;;7.28;;
21754;SDS011;11039;50.028;19.938;2023-06-26T04:04:03;10.23;;;7.78;;
21754;SDS011;11039;50.028;19.938;2023-06-26T04:06:29;9.43;;;7.90;;
21754;SDS011;11039;50.028;19.938;2023-06-26T04:11:14;10.73;;;7.38;;
21754;SDS011;11039;50.028;19.938;2023-06-26T04:13:40;11.13;;;7.82;;
21754;SDS011;11039;50.028;19.938;2023-06-26T04:16:06;9.35;;;7.32;;
21754;SDS011;11039;50.028;19.938;2023-06-26T04:18:33;9.65;;;8.07;;
21754;SDS011;11039;50.028;19.938;2023-06-26T04:21:11;9.88;;;8.00;;
21754;SDS011;11039;50.028;19.938;2023-06-26T04:23:38;11.05;;;8.40;;
21754;SDS011;11039;50.028;19.938;2023-06-26T04:26:05;9.98;;;7.70;;
21754;SDS011;11039;50.028;19.938;2023-06-26T04:28:31;15.48;;;8.32;;
21754;SDS011;11039;50.028;19.938;2023-06-26T04:30:58;9.63;;;8.32;;
21754;SDS011;11039;50.028;19.938;2023-06-26T04:33:24;9.25;;;7.82;;
21754;SDS011;11039;50.028;19.938;2023-06-26T04:35:53;9.63;;;7.68;;
21754;SDS011;11039;50.028;19.938;2023-06-26T04:38:19;8.32;;;7.43;;
21754;SDS011;11039;50.028;19.938;2023-06-26T04:40:46;12.48;;;8.10;;
21754;SDS011;11039;50.028;19.938;2023-06-26T04:45:33;11.02;;;7.65;;
21754;SDS011;11039;50.028;19.938;2023-06-26T04:47:59;10.70;;;8.10;;
21754;SDS011;11039;50.028;19.938;2023-06-26T04:50:25;10.63;;;7.68;;
21754;SDS011;11039;50.028;19.938;2023-06-26T04:52:54;11.82;;;8.25;;
21754;SDS011;11039;50.028;19.938;2023-06-26T04:55:20;12.05;;;8.25;;
21754;SDS011;11039;50.028;19.938;2023-06-26T05:00:05;12.38;;;7.85;;
21754;SDS011;11039;50.028;19.938;2023-06-26T05:02:35;9.55;;;7.43;;
21754;SDS011;11039;50.028;19.938;2023-06-26T05:05:01;10.30;;;8.43;;
21754;SDS011;11039;50.028;19.938;2023-06-26T05:07:27;13.27;;;8.30;;
21754;SDS011;11039;50.028;19.938;2023-06-26T05:09:53;9.18;;;7.80;;
21754;SDS011;11039;50.028;19.938;2023-06-26T05:12:20;11.93;;;7.85;;
21754;SDS011;11039;50.028;19.938;2023-06-26T05:14:46;11.18;;;8.65;;
21754;SDS011;11039;50.028;19.938;2023-06-26T05:17:15;10.52;;;8.40;;
21754;SDS011;11039;50.028;19.938;2023-06-26T05:19:41;10.32;;;8.38;;
21754;SDS011;11039;50.028;19.938;2023-06-26T05:22:07;11.60;;;7.55;;
21754;SDS011;11039;50.028;19.938;2023-06-26T05:24:37;10.50;;;7.68;;
21754;SDS011;11039;50.028;19.938;2023-06-26T05:27:03;8.90;;;7.40;;
21754;SDS011;11039;50.028;19.938;2023-06-26T05:31:48;11.18;;;7.35;;
21754;SDS011;11039;50.028;19.938;2023-06-26T05:34:15;9.50;;;7.55;;
21754;SDS011;11039;50.028;19.938;2023-06-26T05:36:41;9.55;;;7.68;;
21754;SDS011;11039;50.028;19.938;2023-06-26T05:39:08;8.63;;;7.50;;
21754;SDS011;11039;50.028;19.938;2023-06-26T05:41:34;9.18;;;7.28;;
21754;SDS011;11039;50.028;19.938;2023-06-26T05:44:00;8.85;;;7.10;;
21754;SDS011;11039;50.028;19.938;2023-06-26T05:46:26;11.23;;;7.80;;
21754;SDS011;11039;50.028;19.938;2023-06-26T05:48:52;10.20;;;6.82;;
21754;SDS011;11039;50.028;19.938;2023-06-26T05:51:18;8.98;;;6.65;;
21754;SDS011;11039;50.028;19.938;2023-06-26T05:53:45;11.00;;;7.68;;
21754;SDS011;11039;50.028;19.938;2023-06-26T05:56:11;9.45;;;7.03;;
21754;SDS011;11039;50.028;19.938;2023-06-26T05:58:37;12.68;;;7.75;;
21754;SDS011;11039;50.028;19.938;2023-06-26T06:01:03;11.68;;;7.65;;
21754;SDS011;11039;50.028;19.938;2023-06-26T06:03:29;11.98;;;6.90;;
21754;SDS011;11039;50.028;19.938;2023-06-26T06:05:55;8.52;;;7.30;;
21754;SDS011;11039;50.028;19.938;2023-06-26T06:08:21;10.85;;;7.15;;
21754;SDS011;11039;50.028;19.938;2023-06-26T06:10:47;10.60;;;6.78;;
21754;SDS011;11039;50.028;19.938;2023-06-26T06:13:13;10.15;;;7.57;;
21754;SDS011;11039;50.028;19.938;2023-06-26T06:15:39;12.07;;;7.13;;
21754;SDS011;11039;50.028;19.938;2023-06-26T06:18:05;8.98;;;6.90;;
21754;SDS011;11039;50.028;19.938;2023-06-26T06:20:31;10.93;;;7.95;;
21754;SDS011;11039;50.028;19.938;2023-06-26T06:22:57;10.00;;;6.75;;
21754;SDS011;11039;50.028;19.938;2023-06-26T06:25:23;9.68;;;7.03;;
21754;SDS011;11039;50.028;19.938;2023-06-26T06:27:49;9.65;;;7.03;;
21754;SDS011;11039;50.028;19.938;2023-06-26T06:30:15;9.60;;;6.88;;
21754;SDS011;11039;50.028;19.938;2023-06-26T06:32:41;10.35;;;7.00;;
21754;SDS011;11039;50.028;19.938;2023-06-26T06:35:08;10.25;;;7.15;;
21754;SDS011;11039;50.028;19.938;2023-06-26T06:37:37;12.27;;;7.50;;
21754;SDS011;11039;50.028;19.938;2023-06-26T06:40:08;12.98;;;7.53;;
21754;SDS011;11039;50.028;19.938;2023-06-26T06:42:35;9.18;;;7.22;;
21754;SDS011;11039;50.028;19.938;2023-06-26T06:45:04;10.05;;;6.75;;
21754;SDS011;11039;50.028;19.938;2023-06-26T06:47:33;8.57;;;6.70;;
21754;SDS011;11039;50.028;19.938;2023-06-26T06:50:00;9.50;;;6.80;;
21754;SDS011;11039;50.028;19.938;2023-06-26T06:54:52;9.60;;;6.88;;
21754;SDS011;11039;50.028;19.938;2023-06-26T06:57:19;10.98;;;6.38;;
21754;SDS011;11039;50.028;19.938;2023-06-26T06:59:46;9.85;;;7.18;;
21754;SDS011;11039;50.028;19.938;2023-06-26T07:02:12;11.27;;;6.95;;
21754;SDS011;11039;50.028;19.938;2023-06-26T07:04:39;8.25;;;6.70;;
21754;SDS011;11039;50.028;19.938;2023-06-26T07:07:05;9.63;;;6.65;;
21754;SDS011;11039;50.028;19.938;2023-06-26T07:09:31;9.88;;;6.25;;
21754;SDS011;11039;50.028;19.938;2023-06-26T07:11:57;8.70;;;6.72;;
21754;SDS011;11039;50.028;19.938;2023-06-26T07:14:23;7.20;;;6.20;;
21754;SDS011;11039;50.028;19.938;2023-06-26T07:16:49;9.13;;;6.53;;
21754;SDS011;11039;50.028;19.938;2023-06-26T07:19:15;9.50;;;6.50;;
21754;SDS011;11039;50.028;19.938;2023-06-26T07:21:41;9.75;;;6.45;;
21754;SDS011;11039;50.028;19.938;2023-06-26T07:24:09;9.63;;;6.75;;
21754;SDS011;11039;50.028;19.938;2023-06-26T07:26:35;8.02;;;6.88;;
21754;SDS011;11039;50.028;19.938;2023-06-26T07:29:01;8.40;;;6.45;;
21754;SDS011;11039;50.028;19.938;2023-06-26T07:31:27;8.05;;;6.55;;
21754;SDS011;11039;50.028;19.938;2023-06-26T07:36:12;9.52;;;7.03;;
21754;SDS011;11039;50.028;19.938;2023-06-26T07:38:38;8.77;;;6.70;;
21754;SDS011;11039;50.028;19.938;2023-06-26T07:41:04;8.50;;;5.97;;
21754;SDS011;11039;50.028;19.938;2023-06-26T07:43:30;9.65;;;6.50;;
21754;SDS011;11039;50.028;19.938;2023-06-26T07:45:56;8.60;;;6.72;;
21754;SDS011;11039;50.028;19.938;2023-06-26T07:48:24;7.97;;;6.30;;
21754;SDS011;11039;50.028;19.938;2023-06-26T07:50:50;11.32;;;7.13;;
21754;SDS011;11039;50.028;19.938;2023-06-26T07:53:16;7.63;;;6.05;;
21754;SDS011;11039;50.028;19.938;2023-06-26T07:57:59;7.90;;;6.35;;
21754;SDS011;11039;50.028;19.938;2023-06-26T08:00:26;7.68;;;6.07;;
21754;SDS011;11039;50.028;19.938;2023-06-26T08:02:52;7.65;;;6.38;;
21754;SDS011;11039;50.028;19.938;2023-06-26T08:05:18;7.40;;;6.00;;
21754;SDS011;11039;50.028;19.938;2023-06-26T08:07:44;7.03;;;6.15;;
21754;SDS011;11039;50.028;19.938;2023-06-26T08:10:10;8.43;;;6.60;;
21754;SDS011;11039;50.028;19.938;2023-06-26T08:12:39;7.70;;;6.07;;
21754;SDS011;11039;50.028;19.938;2023-06-26T08:15:07;7.13;;;6.00;;
21754;SDS011;11039;50.028;19.938;2023-06-26T08:17:34;7.47;;;6.32;;
21754;SDS011;11039;50.028;19.938;2023-06-26T08:20:01;7.55;;;6.43;;
21754;SDS011;11039;50.028;19.938;2023-06-26T08:22:27;9.35;;;6.15;;
21754;SDS011;11039;50.028;19.938;2023-06-26T08:24:53;7.80;;;6.05;;
21754;SDS011;11039;50.028;19.938;2023-06-26T08:27:19;7.03;;;6.28;;
21754;SDS011;11039;50.028;19.938;2023-06-26T08:29:45;7.10;;;6.18;;
21754;SDS011;11039;50.028;19.938;2023-06-26T08:32:11;6.95;;;6.15;;
21754;SDS011;11039;50.028;19.938;2023-06-26T08:34:37;7.30;;;6.07;;
21754;SDS011;11039;50.028;19.938;2023-06-26T08:37:03;6.80;;;6.00;;
21754;SDS011;11039;50.028;19.938;2023-06-26T08:39:30;8.35;;;6.55;;
21754;SDS011;11039;50.028;19.938;2023-06-26T08:41:56;8.63;;;5.88;;
21754;SDS011;11039;50.028;19.938;2023-06-26T08:44:22;6.70;;;5.90;;
21754;SDS011;11039;50.028;19.938;2023-06-26T08:46:50;7.03;;;5.55;;
21754;SDS011;11039;50.028;19.938;2023-06-26T08:49:50;7.35;;;5.93;;
21754;SDS011;11039;50.028;19.938;2023-06-26T08:52:10;7.20;;;6.03;;
21754;SDS011;11039;50.028;19.938;2023-06-26T08:54:40;7.00;;;5.93;;
21754;SDS011;11039;50.028;19.938;2023-06-26T08:57:09;9.77;;;6.20;;
21754;SDS011;11039;50.028;19.938;2023-06-26T08:59:35;6.70;;;5.97;;
21754;SDS011;11039;50.028;19.938;2023-06-26T09:02:01;7.53;;;6.65;;
21754;SDS011;11039;50.028;19.938;2023-06-26T09:06:46;7.93;;;6.70;;
21754;SDS011;11039;50.028;19.938;2023-06-26T09:09:12;6.60;;;5.95;;
21754;SDS011;11039;50.028;19.938;2023-06-26T09:11:38;6.43;;;5.78;;
21754;SDS011;11039;50.028;19.938;2023-06-26T09:14:05;7.30;;;6.22;;
21754;SDS011;11039;50.028;19.938;2023-06-26T09:16:32;7.13;;;6.05;;
21754;SDS011;11039;50.028;19.938;2023-06-26T09:19:09;6.68;;;5.97;;
21754;SDS011;11039;50.028;19.938;2023-06-26T09:21:36;7.05;;;6.35;;
21754;SDS011;11039;50.028;19.938;2023-06-26T09:24:02;6.80;;;5.72;;
21754;SDS011;11039;50.028;19.938;2023-06-26T09:26:29;7.75;;;6.63;;
21754;SDS011;11039;50.028;19.938;2023-06-26T09:28:55;8.20;;;6.25;;
21754;SDS011;11039;50.028;19.938;2023-06-26T09:31:21;7.00;;;5.88;;
21754;SDS011;11039;50.028;19.938;2023-06-26T09:33:47;8.57;;;6.22;;
21754;SDS011;11039;50.028;19.938;2023-06-26T09:36:20;7.82;;;6.00;;
21754;SDS011;11039;50.028;19.938;2023-06-26T09:41:05;6.25;;;5.65;;
21754;SDS011;11039;50.028;19.938;2023-06-26T09:43:31;6.65;;;5.90;;
21754;SDS011;11039;50.028;19.938;2023-06-26T09:45:57;7.25;;;5.75;;
21754;SDS011;11039;50.028;19.938;2023-06-26T09:48:23;7.80;;;6.15;;
21754;SDS011;11039;50.028;19.938;2023-06-26T09:50:50;5.97;;;5.38;;
21754;SDS011;11039;50.028;19.938;2023-06-26T09:53:16;7.40;;;6.60;;
21754;SDS011;11039;50.028;19.938;2023-06-26T09:55:43;8.13;;;6.32;;
21754;SDS011;11039;50.028;19.938;2023-06-26T09:58:12;7.40;;;5.72;;
21754;SDS011;11039;50.028;19.938;2023-06-26T10:00:42;6.95;;;6.00;;
21754;SDS011;11039;50.028;19.938;2023-06-26T10:03:09;6.63;;;5.70;;
21754;SDS011;11039;50.028;19.938;2023-06-26T10:05:36;6.68;;;5.78;;
21754;SDS011;11039;50.028;19.938;2023-06-26T10:08:02;6.47;;;5.47;;
21754;SDS011;11039;50.028;19.938;2023-06-26T10:10:28;6.80;;;5.93;;
21754;SDS011;11039;50.028;19.938;2023-06-26T10:12:54;6.18;;;5.55;;
21754;SDS011;11039;50.028;19.938;2023-06-26T10:15:22;6.25;;;5.60;;
21754;SDS011;11039;50.028;19.938;2023-06-26T10:17:49;5.95;;;5.18;;
21754;SDS011;11039;50.028;19.938;2023-06-26T10:20:15;7.15;;;5.80;;
21754;SDS011;11039;50.028;19.938;2023-06-26T10:25:00;6.40;;;5.38;;
21754;SDS011;11039;50.028;19.938;2023-06-26T10:27:32;6.82;;;5.80;;
21754;SDS011;11039;50.028;19.938;2023-06-26T10:30:00;5.93;;;5.32;;
21754;SDS011;11039;50.028;19.938;2023-06-26T10:32:28;5.97;;;5.38;;
21754;SDS011;11039;50.028;19.938;2023-06-26T10:34:55;6.18;;;5.53;;
21754;SDS011;11039;50.028;19.938;2023-06-26T10:37:21;6.50;;;5.47;;
21754;SDS011;11039;50.028;19.938;2023-06-26T10:40:06;7.00;;;5.45;;
21754;SDS011;11039;50.028;19.938;2023-06-26T10:42:36;6.82;;;5.82;;
21754;SDS011;11039;50.028;19.938;2023-06-26T10:45:09;8.55;;;5.47;;
21754;SDS011;11039;50.028;19.938;2023-06-26T10:47:37;7.80;;;5.78;;
21754;SDS011;11039;50.028;19.938;2023-06-26T10:50:45;6.18;;;5.35;;
21754;SDS011;11039;50.028;19.938;2023-06-26T10:55:42;6.72;;;5.45;;
21754;SDS011;11039;50.028;19.938;2023-06-26T11:01:13;6.63;;;5.93;;
21754;SDS011;11039;50.028;19.938;2023-06-26T11:04:03;9.52;;;5.10;;
21754;SDS011;11039;50.028;19.938;2023-06-26T11:06:29;7.25;;;5.35;;
21754;SDS011;11039;50.028;19.938;2023-06-26T11:09:00;6.68;;;5.60;;
21754;SDS011;11039;50.028;19.938;2023-06-26T11:12:12;6.95;;;5.10;;
21754;SDS011;11039;50.028;19.938;2023-06-26T11:14:13;5.93;;;5.28;;
21754;SDS011;11039;50.028;19.938;2023-06-26T11:16:39;6.50;;;5.57;;
21754;SDS011;11039;50.028;19.938;2023-06-26T11:19:08;6.20;;;5.60;;
21754;SDS011;11039;50.028;19.938;2023-06-26T11:21:35;6.18;;;5.57;;
21754;SDS011;11039;50.028;19.938;2023-06-26T11:24:02;5.22;;;4.72;;
21754;SDS011;11039;50.028;19.938;2023-06-26T11:26:29;5.85;;;5.22;;
21754;SDS011;11039;50.028;19.938;2023-06-26T11:28:55;5.72;;;5.10;;
21754;SDS011;11039;50.028;19.938;2023-06-26T11:33:50;5.95;;;5.18;;
21754;SDS011;11039;50.028;19.938;2023-06-26T11:36:16;5.50;;;4.97;;
21754;SDS011;11039;50.028;19.938;2023-06-26T11:38:43;5.47;;;4.97;;
21754;SDS011;11039;50.028;19.938;2023-06-26T11:41:09;5.70;;;5.13;;
21754;SDS011;11039;50.028;19.938;2023-06-26T11:43:35;5.63;;;4.75;;
21754;SDS011;11039;50.028;19.938;2023-06-26T11:46:01;8.60;;;5.47;;
21754;SDS011;11039;50.028;19.938;2023-06-26T11:48:27;6.22;;;5.20;;
21754;SDS011;11039;50.028;19.938;2023-06-26T11:50:54;6.25;;;5.32;;
21754;SDS011;11039;50.028;19.938;2023-06-26T11:53:20;6.05;;;5.35;;
21754;SDS011;11039;50.028;19.938;2023-06-26T11:55:46;6.30;;;5.18;;
21754;SDS011;11039;50.028;19.938;2023-06-26T11:58:12;6.13;;;4.90;;
21754;SDS011;11039;50.028;19.938;2023-06-26T12:00:41;6.25;;;5.47;;
21754;SDS011;11039;50.028;19.938;2023-06-26T12:05:27;5.95;;;5.00;;
21754;SDS011;11039;50.028;19.938;2023-06-26T12:07:53;6.95;;;5.00;;
21754;SDS011;11039;50.028;19.938;2023-06-26T12:10:19;6.30;;;5.07;;
21754;SDS011;11039;50.028;19.938;2023-06-26T12:12:46;6.80;;;4.70;;
21754;SDS011;11039;50.028;19.938;2023-06-26T12:15:13;6.10;;;5.40;;
21754;SDS011;11039;50.028;19.938;2023-06-26T12:17:40;5.50;;;4.80;;
21754;SDS011;11039;50.028;19.938;2023-06-26T12:20:16;5.55;;;4.85;;
21754;SDS011;11039;50.028;19.938;2023-06-26T12:22:43;5.55;;;4.97;;
21754;SDS011;11039;50.028;19.938;2023-06-26T12:25:11;5.30;;;4.80;;
21754;SDS011;11039;50.028;19.938;2023-06-26T12:27:37;5.15;;;4.65;;
21754;SDS011;11039;50.028;19.938;2023-06-26T12:30:03;5.47;;;4.82;;
21754;SDS011;11039;50.028;19.938;2023-06-26T12:32:30;6.03;;;4.65;;
21754;SDS011;11039;50.028;19.938;2023-06-26T12:34:57;4.90;;;4.40;;
21754;SDS011;11039;50.028;19.938;2023-06-26T12:37:24;5.50;;;4.60;;
21754;SDS011;11039;50.028;19.938;2023-06-26T12:39:51;4.93;;;4.53;;
21754;SDS011;11039;50.028;19.938;2023-06-26T12:42:18;6.32;;;4.90;;
21754;SDS011;11039;50.028;19.938;2023-06-26T12:44:44;6.32;;;4.70;;
21754;SDS011;11039;50.028;19.938;2023-06-26T12:47:10;7.72;;;6.10;;
21754;SDS011;11039;50.028;19.938;2023-06-26T12:49:39;6.30;;;5.05;;
21754;SDS011;11039;50.028;19.938;2023-06-26T12:52:06;6.03;;;5.43;;
21754;SDS011;11039;50.028;19.938;2023-06-26T12:54:35;5.90;;;5.30;;
21754;SDS011;11039;50.028;19.938;2023-06-26T13:01:38;5.50;;;5.00;;
21754;SDS011;11039;50.028;19.938;2023-06-26T13:04:05;5.45;;;4.93;;
21754;SDS011;11039;50.028;19.938;2023-06-26T13:08:53;6.47;;;5.00;;
21754;SDS011;11039;50.028;19.938;2023-06-26T13:11:19;5.88;;;4.80;;
21754;SDS011;11039;50.028;19.938;2023-06-26T13:13:46;5.95;;;5.05;;
21754;SDS011;11039;50.028;19.938;2023-06-26T13:16:12;6.82;;;5.85;;
21754;SDS011;11039;50.028;19.938;2023-06-26T13:18:38;5.75;;;5.15;;
21754;SDS011;11039;50.028;19.938;2023-06-26T13:21:04;6.32;;;5.72;;
21754;SDS011;11039;50.028;19.938;2023-06-26T13:23:30;5.78;;;5.20;;
21754;SDS011;11039;50.028;19.938;2023-06-26T13:28:14;6.20;;;5.60;;
21754;SDS011;11039;50.028;19.938;2023-06-26T13:30:40;5.65;;;5.15;;
21754;SDS011;11039;50.028;19.938;2023-06-26T13:33:06;8.27;;;5.45;;
21754;SDS011;11039;50.028;19.938;2023-06-26T13:35:32;5.95;;;5.20;;
21754;SDS011;11039;50.028;19.938;2023-06-26T13:37:58;6.05;;;5.45;;
21754;SDS011;11039;50.028;19.938;2023-06-26T13:40:24;6.10;;;5.50;;
21754;SDS011;11039;50.028;19.938;2023-06-26T13:42:50;5.82;;;5.20;;
21754;SDS011;11039;50.028;19.938;2023-06-26T13:45:16;6.15;;;5.50;;
21754;SDS011;11039;50.028;19.938;2023-06-26T13:47:42;6.68;;;5.38;;
21754;SDS011;11039;50.028;19.938;2023-06-26T13:50:09;6.10;;;5.50;;
21754;SDS011;11039;50.028;19.938;2023-06-26T13:52:35;6.97;;;5.07;;
21754;SDS011;11039;50.028;19.938;2023-06-26T13:55:01;6.32;;;5.40;;
21754;SDS011;11039;50.028;19.938;2023-06-26T13:57:30;5.72;;;4.95;;
21754;SDS011;11039;50.028;19.938;2023-06-26T13:59:56;6.38;;;5.72;;
21754;SDS011;11039;50.028;19.938;2023-06-26T14:02:22;7.22;;;5.57;;
21754;SDS011;11039;50.028;19.938;2023-06-26T14:04:49;6.65;;;5.85;;
21754;SDS011;11039;50.028;19.938;2023-06-26T14:07:15;7.43;;;5.53;;
21754;SDS011;11039;50.028;19.938;2023-06-26T14:09:41;6.15;;;5.55;;
21754;SDS011;11039;50.028;19.938;2023-06-26T14:12:07;6.05;;;5.45;;
21754;SDS011;11039;50.028;19.938;2023-06-26T14:14:33;7.43;;;5.95;;
21754;SDS011;11039;50.028;19.938;2023-06-26T14:16:59;6.70;;;5.50;;
21754;SDS011;11039;50.028;19.938;2023-06-26T14:21:44;6.03;;;5.43;;
21754;SDS011;11039;50.028;19.938;2023-06-26T14:24:10;7.10;;;5.85;;
21754;SDS011;11039;50.028;19.938;2023-06-26T14:26:36;7.50;;;5.80;;
21754;SDS011;11039;50.028;19.938;2023-06-26T14:29:03;7.40;;;6.15;;
21754;SDS011;11039;50.028;19.938;2023-06-26T14:31:29;7.28;;;6.00;;
21754;SDS011;11039;50.028;19.938;2023-06-26T14:33:56;6.30;;;5.57;;
21754;SDS011;11039;50.028;19.938;2023-06-26T14:36:24;6.22;;;5.63;;
21754;SDS011;11039;50.028;19.938;2023-06-26T14:38:50;6.80;;;5.63;;
21754;SDS011;11039;50.028;19.938;2023-06-26T14:41:16;6.65;;;5.88;;
21754;SDS011;11039;50.028;19.938;2023-06-26T14:43:42;7.60;;;5.55;;
21754;SDS011;11039;50.028;19.938;2023-06-26T14:46:08;7.00;;;6.07;;
21754;SDS011;11039;50.028;19.938;2023-06-26T14:48:34;7.75;;;5.55;;
21754;SDS011;11039;50.028;19.938;2023-06-26T14:51:00;6.03;;;5.43;;
21754;SDS011;11039;50.028;19.938;2023-06-26T14:53:26;6.43;;;5.53;;
21754;SDS011;11039;50.028;19.938;2023-06-26T14:55:52;6.80;;;5.88;;
21754;SDS011;11039;50.028;19.938;2023-06-26T15:00:36;6.25;;;5.65;;
21754;SDS011;11039;50.028;19.938;2023-06-26T15:03:02;6.50;;;5.72;;
21754;SDS011;11039;50.028;19.938;2023-06-26T15:05:28;6.43;;;5.82;;
21754;SDS011;11039;50.028;19.938;2023-06-26T15:07:54;6.72;;;6.03;;
21754;SDS011;11039;50.028;19.938;2023-06-26T15:10:20;6.88;;;5.85;;
21754;SDS011;11039;50.028;19.938;2023-06-26T15:12:46;7.07;;;5.40;;
21754;SDS011;11039;50.028;19.938;2023-06-26T15:15:13;9.50;;;5.72;;
21754;SDS011;11039;50.028;19.938;2023-06-26T15:17:39;6.97;;;5.60;;
21754;SDS011;11039;50.028;19.938;2023-06-26T15:20:05;6.13;;;5.47;;
21754;SDS011;11039;50.028;19.938;2023-06-26T15:22:31;6.30;;;5.47;;
21754;SDS011;11039;50.028;19.938;2023-06-26T15:24:57;6.20;;;5.60;;
21754;SDS011;11039;50.028;19.938;2023-06-26T15:27:23;5.95;;;5.30;;
21754;SDS011;11039;50.028;19.938;2023-06-26T15:29:49;7.18;;;5.75;;
21754;SDS011;11039;50.028;19.938;2023-06-26T15:32:15;6.13;;;5.43;;
21754;SDS011;11039;50.028;19.938;2023-06-26T15:34:41;6.53;;;5.28;;
21754;SDS011;11039;50.028;19.938;2023-06-26T15:37:07;5.72;;;5.00;;